Latest Coastal Weather Observations for Laverton

IDV60701

Issued at 1:41 am EST Monday 26 June 2017 (issued every 10 minutes, with the page automatically refreshed every 10 minutes)

About coastal observations | Map of coastal stations | Coastal observations for VIC | Marine services | Other Formats
Station Details ID: 087031 Name: LAVERTON RAAF Lat: -37.86 Lon: 144.76 Height: 20.1 m
Data from the previous 72 hours. | See also: Recent months at Laverton
Date/Time
EST
Temp
°C
Wind Pressure Rain since
9am
mm
Weather Cloud Vis
km
Sea
Height
m
Swell
Dir  Spd
kts
Gust
kts
hPa Trend Height
m
Period
s
Dir
26/01:30am 8.2 NW 5 5 1019.3 - 0.6 - Cloudy 10 - - - -
26/01:00am 8.3 NNW 6 7 1019.0 - 0.6 - Partly cloudy 10 - - - -
26/12:30am 8.8 NW 6 8 1019.0 - 0.6 - Partly cloudy 10 - - - -
26/12:00am 8.9 NW 5 7 1019.0 - 0.6 - Cloudy 10 - - - -
 
Date/Time
EST
Temp
°C
Wind Pressure Rain since
9am
mm
Weather Cloud Vis
km
Sea
Height
m
Swell
Dir  Spd
kts
Gust
kts
hPa Trend Height
m
Period
s
Dir
25/11:30pm 8.9 NW 6 7 1018.8 - 0.6 - Partly cloudy 10 - - - -
25/11:00pm 9.4 NW 7 9 1018.8 - 0.6 - Cloudy 10 - - - -
25/10:30pm 9.8 WNW 9 12 1018.7 - 0.6 - Partly cloudy 10 - - - -
25/10:00pm 9.5 WNW 8 11 1018.7 - 0.6 - Partly cloudy 10 - - - -
25/09:30pm 9.0 NW 8 10 1018.3 - 0.6 - Partly cloudy 10 - - - -
25/09:00pm 9.9 WNW 8 13 1018.2 - 0.6 Rain Cloudy 10 - - - -
25/08:56pm 10.1 W 8 12 1018.1 - 0.6 - Partly cloudy 10 - - - -
25/08:38pm 10.5 W 9 13 1018.2 - 0.4 - Partly cloudy 7 - - - -
25/08:30pm 10.9 W 7 10 1018.0 - 0.2 - Partly cloudy 10 - - - -
25/08:00pm 11.4 W 11 15 1017.6 - 0.2 - Partly cloudy 10 - - - -
25/07:30pm 11.7 WNW 10 14 1017.0 - 0.2 - Partly cloudy 10 - - - -
25/07:00pm 11.1 NW 8 10 1016.5 - 0.2 - Partly cloudy 10 - - - -
25/06:30pm 11.7 NW 8 10 1016.1 - 0.2 - Partly cloudy 10 - - - -
25/06:00pm 11.3 NW 7 8 1015.8 - 0.2 - Cloudy 10 - - - -
25/05:30pm 11.9 NW 9 12 1015.6 - 0.2 - Partly cloudy 10 - - - -
25/05:00pm 12.2 NW 12 15 1015.4 - 0.2 - Partly cloudy 10 - - - -
25/04:30pm 12.8 NW 13 19 1015.4 - 0.2 - Partly cloudy 10 - - - -
25/04:00pm 13.3 NW 12 19 1015.1 - 0.2 - - 10 - - - -
25/03:30pm 12.9 NW 13 18 1014.9 - 0.2 - - 10 - - - -
25/03:00pm 12.8 NW 13 19 1015.0 - 0.2 - Mostly cloudy 10 - - - -
25/02:30pm 12.5 NW 10 17 1014.9 - 0.2 - Partly cloudy 10 - - - -
25/02:00pm 12.5 NW 12 18 1015.1 - 0.2 - Partly cloudy 10 - - - -
25/01:30pm 12.7 NW 15 20 1015.2 - 0.2 - Partly cloudy 10 - - - -
25/01:00pm 12.9 NW 16 20 1015.4 - 0.2 - Partly cloudy 10 - - - -
25/12:30pm 13.2 NW 19 25 1015.5 - 0.2 - Partly cloudy 10 - - - -
25/12:00pm 13.9 NW 13 19 1015.9 - 0.2 - Partly cloudy 10 - - - -
25/11:30am 12.2 WNW 12 17 1016.6 - 0.2 - Partly cloudy 10 - - - -
25/11:00am 13.2 NNW 13 17 1016.8 - 0.2 - Partly cloudy 10 - - - -
25/10:30am 10.8 N 13 19 1016.9 - 0.2 - Partly cloudy 10 - - - -
25/10:00am 10.7 NNW 13 18 1017.2 - 0.2 - Cloudy 10 - - - -
25/09:30am 10.2 NNW 13 19 1017.1 - 0.0 - Cloudy 10 - - - -
25/09:00am 9.4 NNW 12 15 1017.1 - 0.0 - Cloudy 10 - - - -
25/08:30am 8.7 NNW 12 17 1016.9 - 0.0 - Partly cloudy 10 - - - -
25/08:00am 8.4 NNW 11 15 1017.0 - 0.0 - Cloudy 10 - - - -
25/07:30am 7.2 NNW 7 10 1016.9 - 0.0 - Cloudy 10 - - - -
25/07:00am 7.9 N 8 12 1016.6 - 0.0 - Cloudy 10 - - - -
25/06:30am 8.4 N 8 13 1016.5 - 0.0 - Partly cloudy 10 - - - -
25/06:00am 8.5 N 8 11 1016.4 - 0.0 - Cloudy 10 - - - -
25/05:30am 8.3 N 9 12 1016.3 - 0.0 - Cloudy 10 - - - -
25/05:00am 8.5 N 9 13 1016.4 - 0.0 - Cloudy 10 - - - -
25/04:30am 8.5 NNW 11 15 1016.4 - 0.0 - Cloudy 10 - - - -
25/04:00am 8.3 NNW 9 12 1016.6 - 0.0 - Cloudy 10 - - - -
25/03:30am 8.2 NNW 10 13 1016.6 - 0.0 - Cloudy 10 - - - -
25/03:00am 7.4 NNW 9 12 1016.7 - 0.0 - Mostly clear 10 - - - -
25/02:30am 7.5 NNW 9 12 1016.7 - 0.0 - Partly cloudy 10 - - - -
25/02:00am 8.5 NNW 7 10 1016.7 - 0.0 - Cloudy 10 - - - -
25/01:30am 8.9 NNW 8 11 1016.8 - 0.0 - Cloudy 10 - - - -
25/01:00am 9.0 NW 8 11 1016.8 - 0.0 - Cloudy 10 - - - -
25/12:30am 8.9 NW 8 10 1017.1 - 0.0 - Cloudy 10 - - - -
25/12:00am 8.9 NNW 8 10 1017.2 - 0.0 - Cloudy 10 - - - -
 
Date/Time
EST
Temp
°C
Wind Pressure Rain since
9am
mm
Weather Cloud Vis
km
Sea
Height
m
Swell
Dir  Spd
kts
Gust
kts
hPa Trend Height
m
Period
s
Dir
24/11:30pm 8.9 NNW 7 10 1017.2 - 0.0 - Cloudy 10 - - - -
24/11:00pm 9.0 NNW 7 10 1017.4 - 0.0 - Cloudy 10 - - - -
24/10:30pm 8.9 NNW 6 9 1017.6 - 0.0 - Cloudy 10 - - - -
24/10:00pm 9.0 NNW 7 9 1017.8 - 0.0 - Cloudy 10 - - - -
24/09:30pm 8.8 NNW 7 8 1018.0 - 0.0 - Cloudy 10 - - - -
24/09:00pm 8.4 NW 6 8 1018.2 - 0.0 - Cloudy 10 - - - -
24/08:30pm 8.6 NW 6 8 1018.3 - 0.0 - Cloudy 10 - - - -
24/08:00pm 8.8 NW 6 7 1018.3 - 0.0 - Cloudy 10 - - - -
24/07:30pm 9.3 NW 6 7 1018.2 - 0.0 - Cloudy 10 - - - -
24/07:00pm 9.7 WNW 5 8 1018.1 - 0.0 - Cloudy 10 - - - -
24/06:30pm 10.1 W 8 13 1018.0 - 0.0 - Cloudy 10 - - - -
24/06:00pm 10.2 W 5 7 1017.9 - 0.0 - Cloudy 10 - - - -
24/05:30pm 10.4 W 7 12 1017.8 - 0.0 - Cloudy 10 - - - -
24/05:00pm 10.6 W 8 11 1017.6 - 0.0 - Cloudy 10 - - - -
24/04:30pm 10.9 WSW 7 10 1017.5 - 0.0 - Cloudy 10 - - - -
24/04:00pm 11.3 W 8 11 1017.4 - 0.0 - Cloudy 10 - - - -
24/03:30pm 11.6 WSW 7 11 1017.4 - 0.0 - Cloudy 10 - - - -
24/03:00pm 11.7 WSW 9 12 1017.3 - 0.0 - Cloudy 10 - - - -
24/02:30pm 12.2 SW 8 12 1017.2 - 0.0 - Partly cloudy 10 - - - -
24/02:00pm 12.6 WSW 9 12 1017.4 - 0.0 - Partly cloudy 10 - - - -
24/01:30pm 12.8 WSW 8 12 1017.6 - 0.0 - Partly cloudy 10 - - - -
24/01:00pm 11.4 W 9 11 1018.0 - 0.0 - Partly cloudy 10 - - - -
24/12:30pm 11.4 W 9 12 1018.2 - 0.0 - Partly cloudy 10 - - - -
24/12:00pm 11.6 SW 9 13 1018.3 - 0.0 - Mostly clear 10 - - - -
24/11:30am 11.1 SW 10 14 1018.6 - 0.0 - - 10 - - - -
24/11:00am 11.0 WSW 8 12 1019.0 - 0.0 - - 10 - - - -
24/10:30am 10.4 W 8 12 1019.1 - 0.0 - - 10 - - - -
24/10:00am 9.3 W 9 12 1019.1 - 0.0 - Partly cloudy 10 - - - -
24/09:30am 9.0 W 8 12 1019.1 - 0.0 - Cloudy 10 - - - -
24/09:00am 7.8 NW 7 8 1018.8 - 0.6 - Partly cloudy 10 - - - -
24/08:30am 6.3 NW 6 7 1018.5 - 0.6 - - 10 - - - -
24/08:00am 5.6 WNW 7 10 1018.1 - 0.6 - - 10 - - - -
24/07:30am 5.9 WNW 7 8 1017.9 - 0.6 - - 10 - - - -
24/07:00am 6.7 WNW 7 9 1017.5 - 0.6 - Partly cloudy 10 - - - -
24/06:30am 7.0 NW 7 9 1017.2 - 0.6 - Cloudy 10 - - - -
24/06:00am 6.9 WNW 5 7 1017.0 - 0.6 - Mostly cloudy 10 - - - -
24/05:30am 7.9 WNW 7 8 1016.7 - 0.6 - Cloudy 10 - - - -
24/05:00am 8.2 W 6 8 1016.5 - 0.6 - Partly cloudy 10 - - - -
24/04:30am 8.2 W 6 7 1016.2 - 0.6 - Partly cloudy 10 - - - -
24/04:00am 8.4 WNW 6 7 1016.2 - 0.6 - Partly cloudy 10 - - - -
24/03:30am 9.1 WSW 6 7 1016.2 - 0.6 - Partly cloudy 10 - - - -
24/03:00am 9.3 WSW 6 8 1016.2 - 0.6 - Cloudy 10 - - - -
24/02:30am 9.3 WSW 6 7 1016.1 - 0.6 - Partly cloudy 10 - - - -
24/02:00am 9.3 SW 6 9 1015.9 - 0.6 - Partly cloudy 10 - - - -
24/01:36am 9.5 SSW 9 13 1015.6 - 0.6 - Partly cloudy 10 - - - -
24/01:30am 9.6 SSW 9 13 1015.4 - 0.6 - Partly cloudy 10 - - - -
24/01:26am 9.6 SW 7 11 1015.4 - 0.6 - Partly cloudy 10 - - - -
24/01:00am 8.8 NW 6 7 1015.2 - 0.6 - Partly cloudy 10 - - - -
24/12:30am 8.8 NW 3 5 1015.2 - 0.6 - Partly cloudy 10 - - - -
24/12:00am 9.2 NW 5 7 1015.1 - 0.6 Recent precip. Partly cloudy 10 - - - -
 
Date/Time
EST
Temp
°C
Wind Pressure Rain since
9am
mm
Weather Cloud Vis
km
Sea
Height
m
Swell
Dir  Spd
kts
Gust
kts
hPa Trend Height
m
Period
s
Dir
23/11:30pm 10.2 WNW 8 11 1015.2 - 0.6 - Partly cloudy 10 - - - -
23/11:18pm 10.3 WNW 11 14 1015.2 - 0.6 - Partly cloudy 10 - - - -
23/11:02pm 10.3 WNW 10 13 1015.3 - 0.4 - Partly cloudy 7 - - - -
23/11:00pm 10.3 WNW 9 12 1015.3 - 0.2 - Partly cloudy 9 - - - -
23/10:54pm 10.3 WNW 10 13 1015.3 - 0.2 - Partly cloudy 10 - - - -
23/10:40pm 10.1 WNW 9 12 1015.3 - 0.2 - Partly cloudy 7 - - - -
23/10:36pm 10.1 WNW 9 12 1015.4 - 0.2 - Partly cloudy 9 - - - -
23/10:30pm 10.1 WNW 9 11 1015.4 - 0.2 - Partly cloudy 10 - - - -
23/10:17pm 10.3 W 7 11 1015.4 - 0.2 - Partly cloudy 7 - - - -
23/10:00pm 10.3 WSW 7 9 1015.1 - 0.0 - Partly cloudy 10 - - - -
23/09:30pm 10.8 NNW 11 14 1014.6 - 0.0 - Partly cloudy 10 - - - -
23/09:00pm 9.9 NNW 11 14 1014.3 - 0.0 - Mostly clear 10 - - - -
23/08:30pm 10.3 NNW 11 15 1014.3 - 0.0 - - 10 - - - -
23/08:00pm 10.6 N 8 12 1014.4 - 0.0 - - 10 - - - -
23/07:30pm 11.0 N 7 11 1014.2 - 0.0 - Partly cloudy 10 - - - -
23/07:00pm 10.9 NNW 9 12 1014.0 - 0.0 - Partly cloudy 10 - - - -
23/06:30pm 11.8 NNW 10 13 1013.8 - 0.0 - Partly cloudy 10 - - - -
23/06:00pm 11.9 NNW 6 8 1013.6 - 0.0 - Cloudy 10 - - - -
23/05:30pm 13.0 NW 10 14 1013.4 - 0.0 - Partly cloudy 10 - - - -
23/05:00pm 13.7 NW 13 17 1013.4 - 0.0 - Cloudy 10 - - - -
23/04:30pm 14.0 NW 15 23 1013.3 - 0.0 - Partly cloudy 10 - - - -
23/04:00pm 14.2 NW 11 17 1013.1 - 0.0 - Partly cloudy 10 - - - -
23/03:30pm 14.3 NNW 10 14 1013.3 - 0.0 - Partly cloudy 10 - - - -
23/03:00pm 15.3 NNW 11 15 1013.4 - 0.0 - Cloudy 10 - - - -
23/02:30pm 14.0 NNW 12 19 1013.5 - 0.0 - - 10 - - - -
23/02:00pm 15.0 NNW 15 22 1013.6 - 0.0 - Partly cloudy 10 - - - -
23/01:30pm 15.2 NNW 19 26 1013.6 - 0.0 - - 10 - - - -
23/01:00pm 15.1 NNW 19 28 1013.9 - 0.0 - - 10 - - - -
23/12:30pm 15.4 NNW 17 28 1014.6 - 0.0 - - 10 - - - -
23/12:23pm 15.1 NNW 18 28 1014.7 - 0.0 - - 10 - - - -
23/12:00pm 14.9 NW 19 25 1015.6 - 0.0 - - 10 - - - -
23/11:35am 14.8 NNW 15 28 1016.1 - 0.0 - - 10 - - - -
23/11:30am 14.8 NNW 14 19 1016.3 - 0.0 - - 10 - - - -
23/11:00am 13.8 NNW 13 20 1016.9 - 0.0 - - 10 - - - -
23/10:30am 13.8 NNW 11 19 1017.5 - 0.0 - - 10 - - - -
23/10:00am 11.9 N 8 12 1017.9 - 0.0 - - 10 - - - -
23/09:30am 10.4 N 8 13 1018.1 - 0.0 - - 10 - - - -
23/09:00am 8.8 NNE 7 10 1018.3 - 0.0 - - 10 - - - -
23/08:30am 7.5 NNE 7 10 1018.5 - 0.0 - - 10 - - - -
23/08:00am 6.2 NE 8 10 1018.6 - 0.0 - - 10 - - - -
23/07:30am 6.1 NNE 8 10 1018.6 - 0.0 - - 10 - - - -
23/07:00am 6.6 NNE 8 10 1018.5 - 0.0 - - 10 - - - -
23/06:30am 6.9 NNE 8 10 1018.5 - 0.0 - - 10 - - - -
23/06:00am 7.2 NNE 7 10 1018.5 - 0.0 - - 10 - - - -
23/05:30am 7.9 NNE 8 11 1018.3 - 0.0 - - 10 - - - -
23/05:00am 9.2 N 9 13 1018.5 - 0.0 - - 10 - - - -
23/04:30am 10.0 N 9 13 1018.7 - 0.0 - - 10 - - - -
23/04:00am 9.6 N 9 12 1019.1 - 0.0 - - 10 - - - -
23/03:30am 9.4 N 9 13 1019.5 - 0.0 - - 10 - - - -
23/03:00am 9.5 N 8 12 1019.8 - 0.0 - Cloudy 10 - - - -
23/02:30am 9.4 N 8 10 1020.1 - 0.0 - - 10 - - - -
23/02:00am 9.4 N 7 11 1020.2 - 0.0 - - 10 - - - -

Other Formats:

Comma delimited format used in spreadsheet applications
http://www.bom.gov.au/fwo/IDV60701/IDV60701.94865.axf

JavaScript Object Notation format (JSON) in row-major order
http://www.bom.gov.au/fwo/IDV60701/IDV60701.94865.json